createdAt,value
2022-08-01T00:02:59.938Z,2.67
2022-08-01T00:06:52.652Z,2.45
2022-08-01T00:10:45.107Z,2.60
2022-08-01T00:14:37.793Z,2.97
2022-08-01T00:18:30.237Z,2.88
2022-08-01T00:22:22.835Z,3.00
2022-08-01T00:26:15.806Z,2.95
2022-08-01T00:30:13.491Z,3.38
2022-08-01T00:34:07.482Z,2.95
2022-08-01T00:38:00.129Z,3.13
2022-08-01T00:41:59.677Z,3.10
2022-08-01T00:45:52.522Z,3.20
2022-08-01T00:49:45.138Z,3.40
2022-08-01T00:53:51.404Z,3.13
2022-08-01T00:58:04.885Z,3.25
2022-08-01T01:01:58.368Z,3.28
2022-08-01T01:06:15.867Z,3.53
2022-08-01T01:10:16.625Z,3.10
2022-08-01T01:14:22.731Z,3.28
2022-08-01T01:18:26.921Z,3.10
2022-08-01T01:22:44.161Z,3.42
2022-08-01T01:27:10.085Z,3.25
2022-08-01T01:31:06.187Z,3.70
2022-08-01T01:35:01.286Z,3.35
2022-08-01T01:38:56.154Z,3.60
2022-08-01T01:42:49.955Z,3.35
2022-08-01T01:46:44.054Z,3.72
2022-08-01T01:50:38.016Z,3.70
2022-08-01T01:54:36.161Z,3.58
2022-08-01T01:58:31.784Z,3.72
2022-08-01T02:02:25.462Z,3.70
2022-08-01T02:06:18.162Z,3.80
2022-08-01T02:10:12.137Z,4.10
2022-08-01T02:14:05.230Z,3.80
2022-08-01T02:18:02.811Z,3.75
2022-08-01T02:26:53.543Z,3.30
2022-08-01T02:30:49.529Z,3.78
2022-08-01T02:34:43.532Z,3.58
2022-08-01T02:38:41.782Z,4.10
2022-08-01T02:42:37.206Z,3.80
2022-08-01T02:46:37.090Z,3.85
2022-08-01T02:50:32.331Z,4.40
2022-08-01T02:54:26.316Z,3.85
2022-08-01T02:58:29.348Z,3.97
2022-08-01T03:02:24.355Z,3.88
2022-08-01T03:06:18.395Z,3.95
2022-08-01T03:10:11.969Z,4.25
2022-08-01T03:14:10.261Z,3.95
2022-08-01T03:18:04.975Z,4.55
2022-08-01T03:21:59.645Z,3.78
2022-08-01T03:25:53.708Z,4.20
2022-08-01T03:33:45.722Z,4.20
2022-08-01T03:38:13.076Z,4.00
2022-08-01T03:42:03.111Z,4.13
2022-08-01T03:46:00.179Z,4.40
2022-08-01T03:49:54.610Z,4.40
2022-08-01T03:53:49.393Z,4.28
2022-08-01T03:57:43.603Z,4.03
2022-08-01T04:01:37.827Z,4.50
2022-08-01T04:05:30.584Z,5.03
2022-08-01T04:09:23.341Z,4.53
2022-08-01T04:13:16.197Z,4.90
2022-08-01T04:17:08.861Z,4.75
2022-08-01T04:21:01.469Z,5.20
2022-08-01T04:24:57.195Z,6.20
2022-08-01T04:28:52.694Z,5.60
2022-08-01T04:32:47.552Z,5.18
2022-08-01T04:36:43.093Z,4.95
2022-08-01T04:40:40.080Z,4.30
2022-08-01T04:48:26.586Z,3.60
2022-08-01T04:52:24.419Z,3.80
2022-08-01T04:56:17.339Z,3.67
2022-08-01T05:04:06.725Z,3.30
2022-08-01T05:07:59.287Z,3.30
2022-08-01T05:11:51.838Z,3.05
2022-08-01T05:15:44.353Z,3.15
2022-08-01T05:19:39.217Z,2.97
2022-08-01T05:23:41.864Z,3.45
2022-08-01T05:27:41.670Z,3.10
2022-08-01T05:31:37.859Z,3.30
2022-08-01T05:35:47.648Z,3.25
2022-08-01T05:39:41.769Z,3.20
2022-08-01T05:43:34.616Z,3.08
2022-08-01T05:47:27.229Z,3.03
2022-08-01T05:51:19.721Z,3.15
2022-08-01T05:55:12.629Z,3.08
2022-08-01T05:59:05.410Z,3.20
2022-08-01T06:02:58.176Z,3.38
2022-08-01T06:06:51.737Z,3.28
2022-08-01T06:10:44.484Z,2.92
2022-08-01T06:14:37.030Z,3.10
2022-08-01T06:18:29.771Z,2.92
2022-08-01T06:22:22.743Z,3.40
2022-08-01T06:26:18.233Z,3.03
2022-08-01T06:30:11.220Z,3.55
2022-08-01T06:34:04.060Z,4.03
2022-08-01T06:37:57.726Z,2.83
2022-08-01T06:41:50.886Z,2.90
2022-08-01T06:45:43.664Z,3.03
2022-08-01T06:49:36.293Z,2.65
2022-08-01T06:53:30.088Z,2.67
2022-08-01T06:57:25.273Z,2.33
2022-08-01T07:01:20.051Z,2.75
2022-08-01T07:05:12.787Z,2.70
2022-08-01T07:09:09.663Z,2.58
2022-08-01T07:13:06.283Z,2.60
2022-08-01T07:16:58.954Z,3.00
2022-08-01T07:20:53.053Z,2.75
2022-08-01T07:24:45.923Z,2.65
2022-08-01T07:28:43.905Z,2.80
2022-08-01T07:32:36.722Z,2.65
2022-08-01T07:36:29.227Z,2.70
2022-08-01T07:40:21.923Z,2.35
2022-08-01T07:44:15.306Z,2.30
2022-08-01T07:48:08.961Z,2.70
2022-08-01T07:52:03.341Z,2.85
2022-08-01T07:56:07.252Z,3.10
2022-08-01T08:00:00.016Z,2.55
2022-08-01T08:03:52.802Z,2.72
2022-08-01T08:07:45.422Z,2.88
2022-08-01T08:11:37.939Z,3.13
2022-08-01T08:15:30.757Z,2.60
2022-08-01T08:19:23.404Z,2.80
2022-08-01T08:23:49.882Z,2.70
2022-08-01T08:27:42.576Z,2.60
2022-08-01T08:31:51.339Z,2.58
2022-08-01T08:35:54.247Z,2.83
2022-08-01T08:39:47.041Z,2.72
2022-08-01T08:43:39.730Z,2.53
2022-08-01T08:47:34.205Z,2.38
2022-08-01T08:51:32.693Z,2.50
2022-08-01T08:55:26.569Z,2.72
2022-08-01T08:59:19.819Z,2.55
2022-08-01T09:03:13.799Z,3.05
2022-08-01T09:07:07.719Z,3.83
2022-08-01T09:11:00.622Z,2.63
2022-08-01T09:14:57.494Z,3.13
2022-08-01T09:18:54.544Z,3.08
2022-08-01T09:22:52.340Z,2.90
2022-08-01T09:26:46.108Z,3.60
2022-08-01T09:30:40.827Z,3.35
2022-08-01T09:34:34.100Z,3.13
2022-08-01T09:38:30.366Z,2.97
2022-08-01T09:42:28.389Z,2.88
2022-08-01T09:46:21.062Z,2.95
2022-08-01T09:50:13.670Z,3.22
2022-08-01T09:54:07.614Z,3.10
2022-08-01T09:58:02.038Z,3.08
2022-08-01T10:01:54.422Z,3.08
2022-08-01T10:05:50.178Z,2.95
2022-08-01T10:09:43.123Z,3.00
2022-08-01T10:13:36.421Z,2.75
2022-08-01T10:17:50.432Z,2.97
2022-08-01T10:21:56.388Z,2.70
2022-08-01T10:25:55.984Z,3.20
2022-08-01T10:30:05.675Z,2.70
2022-08-01T10:34:02.632Z,2.90
2022-08-01T10:37:59.108Z,2.85
2022-08-01T10:41:52.138Z,2.65
2022-08-01T10:45:45.893Z,2.83
2022-08-01T10:49:49.071Z,3.13
2022-08-01T10:53:54.296Z,2.70
2022-08-01T10:57:52.446Z,3.17
2022-08-01T11:02:00.070Z,2.70
2022-08-01T11:05:53.450Z,2.80
2022-08-01T11:09:51.830Z,2.60
2022-08-01T11:13:59.844Z,2.85
2022-08-01T11:17:54.756Z,3.00
2022-08-01T11:21:59.249Z,2.58
2022-08-01T11:26:03.850Z,2.55
2022-08-01T11:30:13.118Z,2.65
2022-08-01T11:34:07.103Z,2.42
2022-08-01T11:38:29.485Z,2.78
2022-08-01T11:42:22.281Z,2.50
2022-08-01T11:46:14.724Z,2.40
2022-08-01T11:50:07.573Z,2.60
2022-08-01T11:54:00.358Z,2.33
2022-08-01T11:58:04.816Z,2.20
2022-08-01T12:01:57.431Z,2.40
2022-08-01T12:05:50.722Z,2.28
2022-08-01T12:09:43.737Z,2.38
2022-08-01T12:13:44.255Z,2.15
2022-08-01T12:17:40.854Z,2.30
2022-08-01T12:21:39.657Z,2.10
2022-08-01T12:25:32.705Z,2.00
2022-08-01T12:29:42.707Z,2.13
2022-08-01T12:33:35.368Z,2.25
2022-08-01T12:37:28.043Z,2.20
2022-08-01T12:41:21.607Z,2.08
2022-08-01T12:45:18.269Z,2.10
2022-08-01T12:49:11.393Z,2.35
2022-08-01T12:53:04.060Z,1.85
2022-08-01T12:56:59.702Z,1.90
2022-08-01T13:01:04.952Z,2.17
2022-08-01T13:04:57.485Z,2.00
2022-08-01T13:08:50.065Z,1.58
2022-08-01T13:12:53.343Z,1.63
2022-08-01T13:16:57.257Z,1.60
2022-08-01T13:20:52.422Z,1.92
2022-08-01T13:24:45.432Z,1.88
2022-08-01T13:28:39.470Z,1.95
2022-08-01T13:32:32.510Z,2.05
2022-08-01T13:36:28.378Z,1.90
2022-08-01T13:40:27.723Z,1.95
2022-08-01T13:44:20.272Z,1.85
2022-08-01T13:48:18.449Z,1.70
2022-08-01T13:52:11.618Z,2.20
2022-08-01T13:56:04.218Z,2.13
2022-08-01T13:59:59.084Z,2.00
2022-08-01T14:03:52.384Z,1.50
2022-08-01T14:07:45.774Z,1.70
2022-08-01T14:19:38.778Z,1.80
2022-08-01T14:23:32.049Z,1.88
2022-08-01T14:27:24.440Z,1.95
2022-08-01T14:31:17.825Z,2.00
2022-08-01T14:35:10.476Z,1.80
2022-08-01T14:39:03.917Z,1.98
2022-08-01T14:42:57.165Z,2.00
2022-08-01T14:46:57.584Z,2.00
2022-08-01T14:50:51.733Z,1.92
2022-08-01T14:54:44.197Z,2.00
2022-08-01T14:58:36.668Z,1.90
2022-08-01T15:02:29.177Z,1.80
2022-08-01T15:06:21.649Z,1.90
2022-08-01T15:10:15.132Z,1.75
2022-08-01T15:14:26.103Z,1.60
2022-08-01T15:18:18.548Z,1.95
2022-08-01T15:22:11.285Z,1.95
2022-08-01T15:26:03.688Z,1.77
2022-08-01T15:29:57.106Z,2.13
2022-08-01T15:33:49.550Z,1.90
2022-08-01T15:37:43.398Z,1.80
2022-08-01T15:41:36.963Z,1.83
2022-08-01T15:45:46.927Z,1.75
2022-08-01T15:49:40.783Z,1.88
2022-08-01T15:53:33.214Z,1.80
2022-08-01T15:57:25.759Z,1.95
2022-08-01T16:01:18.975Z,2.00
2022-08-01T16:05:11.493Z,2.10
2022-08-01T16:09:05.545Z,2.00
2022-08-01T16:12:58.088Z,2.00
2022-08-01T16:16:54.810Z,1.90
2022-08-01T16:20:47.492Z,2.03
2022-08-01T16:24:39.959Z,2.33
2022-08-01T16:28:32.473Z,2.20
2022-08-01T16:32:25.102Z,2.20
2022-08-01T16:36:22.179Z,2.13
2022-08-01T16:40:17.408Z,2.50
2022-08-01T16:44:09.984Z,2.20
2022-08-01T16:48:02.467Z,2.50
2022-08-01T16:51:55.186Z,2.00
2022-08-01T16:55:50.190Z,2.20
2022-08-01T16:59:43.597Z,2.45
2022-08-01T17:03:52.640Z,2.40
2022-08-01T17:07:47.515Z,2.58
2022-08-01T17:11:40.068Z,2.60
2022-08-01T17:15:36.488Z,2.17
2022-08-01T17:19:32.984Z,2.55
2022-08-01T17:23:25.812Z,2.45
2022-08-01T17:27:19.115Z,2.30
2022-08-01T17:31:15.692Z,2.70
2022-08-01T17:35:09.283Z,2.97
2022-08-01T17:39:03.104Z,2.53
2022-08-01T17:42:55.539Z,2.80
2022-08-01T17:46:47.938Z,2.80
2022-08-01T17:50:40.450Z,2.47
2022-08-01T17:54:33.358Z,2.80
2022-08-01T17:58:48.953Z,2.90
2022-08-01T18:02:39.403Z,3.08
2022-08-01T18:06:32.348Z,2.65
2022-08-01T18:14:21.625Z,2.80
2022-08-01T18:18:34.175Z,2.42
2022-08-01T18:22:33.874Z,2.70
2022-08-01T18:26:26.800Z,2.75
2022-08-01T18:30:19.819Z,2.78
2022-08-01T18:34:12.237Z,2.60
2022-08-01T18:38:04.645Z,2.60
2022-08-01T18:41:58.264Z,2.60
2022-08-01T18:45:50.728Z,2.53
2022-08-01T18:49:43.833Z,2.72
2022-08-01T18:53:36.189Z,2.22
2022-08-01T18:57:28.952Z,2.60
2022-08-01T19:01:22.575Z,2.85
2022-08-01T19:05:15.119Z,2.58
2022-08-01T19:09:08.183Z,2.50
2022-08-01T19:13:02.377Z,2.42
2022-08-01T19:16:56.582Z,2.50
2022-08-01T19:20:49.223Z,2.20
2022-08-01T19:24:41.677Z,2.28
2022-08-01T19:28:48.487Z,2.10
2022-08-01T19:32:43.586Z,2.50
2022-08-01T19:36:38.107Z,2.15
2022-08-01T19:40:32.552Z,2.10
2022-08-01T19:44:28.829Z,1.98
2022-08-01T19:48:21.879Z,2.00
2022-08-01T19:52:17.432Z,2.22
2022-08-01T19:56:10.600Z,2.30
2022-08-01T20:00:04.545Z,2.25
2022-08-01T20:03:59.493Z,2.47
2022-08-01T20:07:57.076Z,3.00
2022-08-01T20:11:51.769Z,3.13
2022-08-01T20:15:45.238Z,3.03
2022-08-01T20:19:37.688Z,2.92
2022-08-01T20:23:31.947Z,2.83
2022-08-01T20:27:26.848Z,3.00
2022-08-01T20:31:21.379Z,2.60
2022-08-01T20:35:14.616Z,2.30
2022-08-01T20:39:07.634Z,2.40
2022-08-01T20:43:02.511Z,2.50
2022-08-01T20:46:55.144Z,2.40
2022-08-01T20:51:07.327Z,2.47
2022-08-01T20:54:59.788Z,2.55
2022-08-01T20:59:00.400Z,2.42
2022-08-01T21:03:10.294Z,2.70
2022-08-01T21:07:13.279Z,2.70
2022-08-01T21:11:10.951Z,2.45
2022-08-01T21:15:03.865Z,2.65
2022-08-01T21:19:18.745Z,2.80
2022-08-01T21:23:14.189Z,2.60
2022-08-01T21:27:06.930Z,2.65
2022-08-01T21:30:59.587Z,2.45
2022-08-01T21:34:56.168Z,2.83
2022-08-01T21:38:49.112Z,2.45
2022-08-01T21:42:46.968Z,3.28
2022-08-01T21:46:39.455Z,2.53
2022-08-01T21:50:44.434Z,2.83
2022-08-01T21:54:55.152Z,2.33
2022-08-01T21:59:00.551Z,2.28
2022-08-01T22:03:30.525Z,2.47
2022-08-01T22:07:26.955Z,2.45
2022-08-01T22:11:33.816Z,2.63
2022-08-01T22:15:45.054Z,2.05
2022-08-01T22:19:45.418Z,2.40
2022-08-01T22:23:45.862Z,2.17
2022-08-01T22:28:05.596Z,2.47
2022-08-01T22:31:57.001Z,3.22
2022-08-01T22:35:52.639Z,3.10
2022-08-01T22:39:45.211Z,3.45
2022-08-01T22:44:04.548Z,3.50
2022-08-01T22:48:08.531Z,3.40
2022-08-01T22:52:13.790Z,3.17
2022-08-01T22:56:10.253Z,3.20
2022-08-01T23:00:07.917Z,3.30
2022-08-01T23:04:02.775Z,3.75
2022-08-01T23:07:57.186Z,3.00
2022-08-01T23:11:51.121Z,3.67
2022-08-01T23:15:52.055Z,3.17
2022-08-01T23:19:46.668Z,3.40
2022-08-01T23:23:40.007Z,3.28
2022-08-01T23:27:51.776Z,2.92
2022-08-01T23:32:02.728Z,3.20
2022-08-01T23:36:03.156Z,2.90
2022-08-01T23:39:55.662Z,2.97
2022-08-01T23:43:52.435Z,3.35
2022-08-01T23:51:37.606Z,3.30
2022-08-01T23:55:36.915Z,3.45
2022-08-01T23:59:53.642Z,3.15
